sensor_id;sensor_type;location;lat;lon;timestamp;temperature;humidity
76838;DHT22;65797;47.352;8.164;2023-07-20T00:00:48;21.10;11.10
76838;DHT22;65797;47.352;8.164;2023-07-20T00:03:19;21.10;11.10
76838;DHT22;65797;47.352;8.164;2023-07-20T00:05:50;21.10;10.50
76838;DHT22;65797;47.352;8.164;2023-07-20T00:08:17;21.10;10.70
76838;DHT22;65797;47.352;8.164;2023-07-20T00:10:44;21.10;12.30
76838;DHT22;65797;47.352;8.164;2023-07-20T00:13:11;21.10;22.50
76838;DHT22;65797;47.352;8.164;2023-07-20T00:15:37;21.00;24.10
76838;DHT22;65797;47.352;8.164;2023-07-20T00:18:04;21.00;23.60
76838;DHT22;65797;47.352;8.164;2023-07-20T00:20:29;21.00;26.30
76838;DHT22;65797;47.352;8.164;2023-07-20T00:22:55;20.90;40.00
76838;DHT22;65797;47.352;8.164;2023-07-20T00:25:23;20.90;45.80
76838;DHT22;65797;47.352;8.164;2023-07-20T00:27:49;20.80;55.20
76838;DHT22;65797;47.352;8.164;2023-07-20T00:30:15;20.80;57.80
76838;DHT22;65797;47.352;8.164;2023-07-20T00:32:42;20.80;62.60
76838;DHT22;65797;47.352;8.164;2023-07-20T00:35:08;20.80;59.10
76838;DHT22;65797;47.352;8.164;2023-07-20T00:37:34;20.80;88.60
76838;DHT22;65797;47.352;8.164;2023-07-20T00:40:00;20.70;91.80
76838;DHT22;65797;47.352;8.164;2023-07-20T00:42:26;20.70;90.80
76838;DHT22;65797;47.352;8.164;2023-07-20T00:44:52;20.60;99.90
76838;DHT22;65797;47.352;8.164;2023-07-20T00:47:18;20.60;99.90
76838;DHT22;65797;47.352;8.164;2023-07-20T00:49:43;20.60;99.90
76838;DHT22;65797;47.352;8.164;2023-07-20T00:52:10;20.50;99.90
76838;DHT22;65797;47.352;8.164;2023-07-20T00:54:40;20.50;99.90
76838;DHT22;65797;47.352;8.164;2023-07-20T00:57:07;20.50;99.90
76838;DHT22;65797;47.352;8.164;2023-07-20T00:59:34;20.40;99.90
76838;DHT22;65797;47.352;8.164;2023-07-20T01:02:01;20.40;99.90
76838;DHT22;65797;47.352;8.164;2023-07-20T01:04:28;20.30;99.90
76838;DHT22;65797;47.352;8.164;2023-07-20T01:07:12;20.30;99.90
76838;DHT22;65797;47.352;8.164;2023-07-20T01:09:48;20.30;99.90
76838;DHT22;65797;47.352;8.164;2023-07-20T01:12:27;20.20;99.90
76838;DHT22;65797;47.352;8.164;2023-07-20T01:14:55;20.20;99.90
76838;DHT22;65797;47.352;8.164;2023-07-20T01:17:22;20.20;99.90
76838;DHT22;65797;47.352;8.164;2023-07-20T01:19:49;20.20;99.90
76838;DHT22;65797;47.352;8.164;2023-07-20T01:25:55;20.20;99.90
76838;DHT22;65797;47.352;8.164;2023-07-20T01:31:14;20.00;99.90
76838;DHT22;65797;47.352;8.164;2023-07-20T01:33:41;19.90;99.90
76838;DHT22;65797;47.352;8.164;2023-07-20T01:36:08;19.90;99.90
76838;DHT22;65797;47.352;8.164;2023-07-20T01:38:35;19.90;99.90
76838;DHT22;65797;47.352;8.164;2023-07-20T01:41:02;19.90;99.90
76838;DHT22;65797;47.352;8.164;2023-07-20T01:43:28;19.80;99.90
76838;DHT22;65797;47.352;8.164;2023-07-20T01:45:53;19.80;99.90
76838;DHT22;65797;47.352;8.164;2023-07-20T01:48:19;19.70;99.90
76838;DHT22;65797;47.352;8.164;2023-07-20T01:50:45;19.70;99.90
76838;DHT22;65797;47.352;8.164;2023-07-20T01:53:11;19.70;99.90
76838;DHT22;65797;47.352;8.164;2023-07-20T01:55:37;19.60;99.90
76838;DHT22;65797;47.352;8.164;2023-07-20T01:58:02;19.60;99.90
76838;DHT22;65797;47.352;8.164;2023-07-20T02:00:29;19.50;99.90
76838;DHT22;65797;47.352;8.164;2023-07-20T02:02:55;19.50;99.90
76838;DHT22;65797;47.352;8.164;2023-07-20T02:05:20;19.50;99.90
76838;DHT22;65797;47.352;8.164;2023-07-20T02:07:46;19.50;99.90
76838;DHT22;65797;47.352;8.164;2023-07-20T02:10:12;19.50;99.90
76838;DHT22;65797;47.352;8.164;2023-07-20T02:12:37;19.50;99.90
76838;DHT22;65797;47.352;8.164;2023-07-20T02:15:04;19.40;99.90
76838;DHT22;65797;47.352;8.164;2023-07-20T02:17:30;19.40;99.90
76838;DHT22;65797;47.352;8.164;2023-07-20T02:19:56;19.30;99.90
76838;DHT22;65797;47.352;8.164;2023-07-20T02:22:23;19.30;99.90
76838;DHT22;65797;47.352;8.164;2023-07-20T02:24:49;19.30;99.90
76838;DHT22;65797;47.352;8.164;2023-07-20T02:27:16;19.30;99.90
76838;DHT22;65797;47.352;8.164;2023-07-20T02:29:42;19.20;99.90
76838;DHT22;65797;47.352;8.164;2023-07-20T02:32:08;19.30;99.90
76838;DHT22;65797;47.352;8.164;2023-07-20T02:34:35;19.30;99.90
76838;DHT22;65797;47.352;8.164;2023-07-20T02:37:01;19.30;99.90
76838;DHT22;65797;47.352;8.164;2023-07-20T02:39:30;19.30;99.90
76838;DHT22;65797;47.352;8.164;2023-07-20T02:41:56;19.30;99.90
76838;DHT22;65797;47.352;8.164;2023-07-20T02:44:21;19.20;99.90
76838;DHT22;65797;47.352;8.164;2023-07-20T02:46:47;19.20;99.90
76838;DHT22;65797;47.352;8.164;2023-07-20T02:49:15;19.10;99.90
76838;DHT22;65797;47.352;8.164;2023-07-20T02:51:41;19.10;99.90
76838;DHT22;65797;47.352;8.164;2023-07-20T02:54:07;19.10;99.90
76838;DHT22;65797;47.352;8.164;2023-07-20T02:56:33;19.20;99.90
76838;DHT22;65797;47.352;8.164;2023-07-20T02:59:01;19.20;99.90
76838;DHT22;65797;47.352;8.164;2023-07-20T03:01:27;19.10;99.90
76838;DHT22;65797;47.352;8.164;2023-07-20T03:03:55;19.10;99.90
76838;DHT22;65797;47.352;8.164;2023-07-20T03:06:21;19.00;99.90
76838;DHT22;65797;47.352;8.164;2023-07-20T03:08:46;19.00;99.90
76838;DHT22;65797;47.352;8.164;2023-07-20T03:11:18;18.90;99.90
76838;DHT22;65797;47.352;8.164;2023-07-20T03:13:45;18.90;99.90
76838;DHT22;65797;47.352;8.164;2023-07-20T03:16:12;18.80;99.90
76838;DHT22;65797;47.352;8.164;2023-07-20T03:18:41;18.70;99.90
76838;DHT22;65797;47.352;8.164;2023-07-20T03:21:08;18.70;99.90
76838;DHT22;65797;47.352;8.164;2023-07-20T03:23:34;18.70;99.90
76838;DHT22;65797;47.352;8.164;2023-07-20T03:26:00;18.80;99.90
76838;DHT22;65797;47.352;8.164;2023-07-20T03:28:26;18.70;99.90
76838;DHT22;65797;47.352;8.164;2023-07-20T03:30:58;18.70;99.90
76838;DHT22;65797;47.352;8.164;2023-07-20T03:33:28;18.70;99.90
76838;DHT22;65797;47.352;8.164;2023-07-20T03:35:55;18.70;99.90
76838;DHT22;65797;47.352;8.164;2023-07-20T03:38:21;18.70;99.90
76838;DHT22;65797;47.352;8.164;2023-07-20T03:40:55;18.60;99.90
76838;DHT22;65797;47.352;8.164;2023-07-20T03:43:22;18.60;99.90
76838;DHT22;65797;47.352;8.164;2023-07-20T03:45:48;18.50;99.90
76838;DHT22;65797;47.352;8.164;2023-07-20T03:48:22;18.50;99.90
76838;DHT22;65797;47.352;8.164;2023-07-20T03:50:52;18.50;99.90
76838;DHT22;65797;47.352;8.164;2023-07-20T03:53:18;18.30;99.90
76838;DHT22;65797;47.352;8.164;2023-07-20T03:55:51;18.30;99.90
76838;DHT22;65797;47.352;8.164;2023-07-20T03:58:18;18.30;99.90
76838;DHT22;65797;47.352;8.164;2023-07-20T04:00:51;18.30;99.90
76838;DHT22;65797;47.352;8.164;2023-07-20T04:03:18;18.30;99.90
76838;DHT22;65797;47.352;8.164;2023-07-20T04:05:44;18.30;99.90
76838;DHT22;65797;47.352;8.164;2023-07-20T04:08:10;18.40;99.90
76838;DHT22;65797;47.352;8.164;2023-07-20T04:10:43;18.30;99.90
76838;DHT22;65797;47.352;8.164;2023-07-20T04:13:08;18.20;99.90
76838;DHT22;65797;47.352;8.164;2023-07-20T04:15:44;18.20;99.90
76838;DHT22;65797;47.352;8.164;2023-07-20T04:18:12;18.30;99.90
76838;DHT22;65797;47.352;8.164;2023-07-20T04:20:38;18.30;99.90
76838;DHT22;65797;47.352;8.164;2023-07-20T04:23:04;18.30;99.90
76838;DHT22;65797;47.352;8.164;2023-07-20T04:25:30;18.40;99.90
76838;DHT22;65797;47.352;8.164;2023-07-20T04:28:04;18.20;99.90
76838;DHT22;65797;47.352;8.164;2023-07-20T04:30:34;18.40;99.90
76838;DHT22;65797;47.352;8.164;2023-07-20T04:33:00;18.40;99.90
76838;DHT22;65797;47.352;8.164;2023-07-20T04:38:10;18.50;99.90
76838;DHT22;65797;47.352;8.164;2023-07-20T04:40:37;18.50;99.90
76838;DHT22;65797;47.352;8.164;2023-07-20T04:43:03;18.50;99.90
76838;DHT22;65797;47.352;8.164;2023-07-20T04:45:29;18.50;99.90
76838;DHT22;65797;47.352;8.164;2023-07-20T04:47:55;18.50;99.90
76838;DHT22;65797;47.352;8.164;2023-07-20T04:50:21;18.60;99.90
76838;DHT22;65797;47.352;8.164;2023-07-20T04:52:46;18.60;99.90
76838;DHT22;65797;47.352;8.164;2023-07-20T04:55:13;18.60;99.90
76838;DHT22;65797;47.352;8.164;2023-07-20T04:57:39;18.50;99.90
76838;DHT22;65797;47.352;8.164;2023-07-20T05:00:05;18.50;99.90
76838;DHT22;65797;47.352;8.164;2023-07-20T05:02:31;18.50;99.90
76838;DHT22;65797;47.352;8.164;2023-07-20T05:04:57;18.60;99.90
76838;DHT22;65797;47.352;8.164;2023-07-20T05:07:23;18.60;99.90
76838;DHT22;65797;47.352;8.164;2023-07-20T05:09:48;18.70;99.90
76838;DHT22;65797;47.352;8.164;2023-07-20T05:12:16;18.70;99.90
76838;DHT22;65797;47.352;8.164;2023-07-20T05:14:42;18.70;99.90
76838;DHT22;65797;47.352;8.164;2023-07-20T05:17:07;18.70;99.90
76838;DHT22;65797;47.352;8.164;2023-07-20T05:19:33;18.80;99.90
76838;DHT22;65797;47.352;8.164;2023-07-20T05:21:59;19.00;99.90
76838;DHT22;65797;47.352;8.164;2023-07-20T05:24:25;19.00;99.90
76838;DHT22;65797;47.352;8.164;2023-07-20T05:26:50;19.00;99.90
76838;DHT22;65797;47.352;8.164;2023-07-20T05:29:16;19.00;99.90
76838;DHT22;65797;47.352;8.164;2023-07-20T05:31:42;19.10;99.90
76838;DHT22;65797;47.352;8.164;2023-07-20T05:34:07;19.20;99.90
76838;DHT22;65797;47.352;8.164;2023-07-20T05:36:33;19.20;99.90
76838;DHT22;65797;47.352;8.164;2023-07-20T05:38:59;19.30;99.90
76838;DHT22;65797;47.352;8.164;2023-07-20T05:41:24;19.30;99.90
76838;DHT22;65797;47.352;8.164;2023-07-20T05:43:50;19.30;99.90
76838;DHT22;65797;47.352;8.164;2023-07-20T05:46:16;19.40;99.90
76838;DHT22;65797;47.352;8.164;2023-07-20T05:48:41;19.40;99.90
76838;DHT22;65797;47.352;8.164;2023-07-20T05:51:07;19.50;99.90
76838;DHT22;65797;47.352;8.164;2023-07-20T05:53:33;19.60;99.90
76838;DHT22;65797;47.352;8.164;2023-07-20T05:55:58;19.60;99.90
76838;DHT22;65797;47.352;8.164;2023-07-20T05:58:24;19.70;99.90
76838;DHT22;65797;47.352;8.164;2023-07-20T06:00:50;19.80;99.90
76838;DHT22;65797;47.352;8.164;2023-07-20T06:03:17;20.00;99.90
76838;DHT22;65797;47.352;8.164;2023-07-20T06:05:45;20.20;99.90
76838;DHT22;65797;47.352;8.164;2023-07-20T06:08:11;20.20;99.90
76838;DHT22;65797;47.352;8.164;2023-07-20T06:10:36;20.30;99.90
76838;DHT22;65797;47.352;8.164;2023-07-20T06:13:05;20.40;99.90
76838;DHT22;65797;47.352;8.164;2023-07-20T06:15:39;20.50;99.90
76838;DHT22;65797;47.352;8.164;2023-07-20T06:18:06;20.60;84.60
76838;DHT22;65797;47.352;8.164;2023-07-20T06:20:33;20.80;73.50
76838;DHT22;65797;47.352;8.164;2023-07-20T06:23:01;21.40;69.40
76838;DHT22;65797;47.352;8.164;2023-07-20T06:25:26;21.50;61.70
76838;DHT22;65797;47.352;8.164;2023-07-20T06:27:52;21.50;55.10
76838;DHT22;65797;47.352;8.164;2023-07-20T06:30:19;22.10;49.30
76838;DHT22;65797;47.352;8.164;2023-07-20T06:32:45;22.50;43.50
76838;DHT22;65797;47.352;8.164;2023-07-20T06:35:11;22.20;41.00
76838;DHT22;65797;47.352;8.164;2023-07-20T06:37:36;22.10;34.80
76838;DHT22;65797;47.352;8.164;2023-07-20T06:40:03;21.80;30.20
76838;DHT22;65797;47.352;8.164;2023-07-20T06:42:30;21.90;32.80
76838;DHT22;65797;47.352;8.164;2023-07-20T06:44:57;21.90;29.70
76838;DHT22;65797;47.352;8.164;2023-07-20T06:47:22;21.90;30.90
76838;DHT22;65797;47.352;8.164;2023-07-20T06:49:48;21.90;30.50
76838;DHT22;65797;47.352;8.164;2023-07-20T06:52:14;22.00;31.80
76838;DHT22;65797;47.352;8.164;2023-07-20T06:54:39;22.00;32.40
76838;DHT22;65797;47.352;8.164;2023-07-20T06:57:05;22.00;30.60
76838;DHT22;65797;47.352;8.164;2023-07-20T06:59:31;22.00;31.30
76838;DHT22;65797;47.352;8.164;2023-07-20T07:01:57;22.00;30.60
76838;DHT22;65797;47.352;8.164;2023-07-20T07:04:22;21.90;28.30
76838;DHT22;65797;47.352;8.164;2023-07-20T07:06:48;22.00;30.60
76838;DHT22;65797;47.352;8.164;2023-07-20T07:09:14;22.00;35.70
76838;DHT22;65797;47.352;8.164;2023-07-20T07:11:40;22.00;32.60
76838;DHT22;65797;47.352;8.164;2023-07-20T07:14:05;22.10;26.30
76838;DHT22;65797;47.352;8.164;2023-07-20T07:16:31;22.00;27.10
76838;DHT22;65797;47.352;8.164;2023-07-20T07:18:57;22.10;25.10
76838;DHT22;65797;47.352;8.164;2023-07-20T07:21:23;22.00;28.30
76838;DHT22;65797;47.352;8.164;2023-07-20T07:23:51;21.90;28.90
76838;DHT22;65797;47.352;8.164;2023-07-20T07:26:18;22.00;24.10
76838;DHT22;65797;47.352;8.164;2023-07-20T07:28:44;22.00;33.00
76838;DHT22;65797;47.352;8.164;2023-07-20T07:31:10;22.00;23.30
76838;DHT22;65797;47.352;8.164;2023-07-20T07:33:36;22.00;26.10
76838;DHT22;65797;47.352;8.164;2023-07-20T07:36:02;22.00;26.50
76838;DHT22;65797;47.352;8.164;2023-07-20T07:38:28;22.20;26.10
76838;DHT22;65797;47.352;8.164;2023-07-20T07:40:54;22.30;22.50
76838;DHT22;65797;47.352;8.164;2023-07-20T07:43:20;22.30;24.10
76838;DHT22;65797;47.352;8.164;2023-07-20T07:45:46;22.20;22.80
76838;DHT22;65797;47.352;8.164;2023-07-20T07:48:11;22.20;21.50
76838;DHT22;65797;47.352;8.164;2023-07-20T07:50:38;22.20;22.80
76838;DHT22;65797;47.352;8.164;2023-07-20T07:53:05;22.50;28.00
76838;DHT22;65797;47.352;8.164;2023-07-20T07:55:31;22.60;22.00
76838;DHT22;65797;47.352;8.164;2023-07-20T07:57:57;22.60;20.60
76838;DHT22;65797;47.352;8.164;2023-07-20T08:00:23;22.80;21.60
76838;DHT22;65797;47.352;8.164;2023-07-20T08:02:50;23.10;26.50
76838;DHT22;65797;47.352;8.164;2023-07-20T08:05:16;22.90;25.70
76838;DHT22;65797;47.352;8.164;2023-07-20T08:07:42;23.30;27.40
76838;DHT22;65797;47.352;8.164;2023-07-20T08:10:09;23.30;26.50
76838;DHT22;65797;47.352;8.164;2023-07-20T08:12:34;23.40;30.20
76838;DHT22;65797;47.352;8.164;2023-07-20T08:15:00;23.50;24.30
76838;DHT22;65797;47.352;8.164;2023-07-20T08:17:26;23.80;33.00
76838;DHT22;65797;47.352;8.164;2023-07-20T08:19:51;23.90;26.30
76838;DHT22;65797;47.352;8.164;2023-07-20T08:22:17;24.10;26.00
76838;DHT22;65797;47.352;8.164;2023-07-20T08:24:43;24.10;26.00
76838;DHT22;65797;47.352;8.164;2023-07-20T08:27:09;24.70;22.50
76838;DHT22;65797;47.352;8.164;2023-07-20T08:29:36;24.90;25.80
76838;DHT22;65797;47.352;8.164;2023-07-20T08:32:03;25.00;28.10
76838;DHT22;65797;47.352;8.164;2023-07-20T08:34:29;25.50;31.30
76838;DHT22;65797;47.352;8.164;2023-07-20T08:36:55;25.60;28.20
76838;DHT22;65797;47.352;8.164;2023-07-20T08:39:22;25.50;25.00
76838;DHT22;65797;47.352;8.164;2023-07-20T08:41:49;25.50;22.00
76838;DHT22;65797;47.352;8.164;2023-07-20T08:44:15;25.30;25.00
76838;DHT22;65797;47.352;8.164;2023-07-20T08:46:41;25.80;25.80
76838;DHT22;65797;47.352;8.164;2023-07-20T08:49:08;26.00;26.90
76838;DHT22;65797;47.352;8.164;2023-07-20T08:51:35;26.10;28.90
76838;DHT22;65797;47.352;8.164;2023-07-20T08:54:02;26.20;26.00
76838;DHT22;65797;47.352;8.164;2023-07-20T08:56:27;26.00;20.90
76838;DHT22;65797;47.352;8.164;2023-07-20T08:58:55;26.00;21.30
76838;DHT22;65797;47.352;8.164;2023-07-20T09:01:22;26.20;22.50
76838;DHT22;65797;47.352;8.164;2023-07-20T09:03:48;26.50;23.80
76838;DHT22;65797;47.352;8.164;2023-07-20T09:06:14;26.70;24.10
76838;DHT22;65797;47.352;8.164;2023-07-20T09:08:40;25.90;21.90
76838;DHT22;65797;47.352;8.164;2023-07-20T09:11:06;26.50;24.00
76838;DHT22;65797;47.352;8.164;2023-07-20T09:13:33;26.30;23.40
76838;DHT22;65797;47.352;8.164;2023-07-20T09:15:59;25.80;22.30
76838;DHT22;65797;47.352;8.164;2023-07-20T09:18:29;25.00;16.20
76838;DHT22;65797;47.352;8.164;2023-07-20T09:21:02;26.20;21.90
76838;DHT22;65797;47.352;8.164;2023-07-20T09:23:36;26.10;22.50
76838;DHT22;65797;47.352;8.164;2023-07-20T09:26:12;26.70;24.50
76838;DHT22;65797;47.352;8.164;2023-07-20T09:28:57;27.00;29.90
76838;DHT22;65797;47.352;8.164;2023-07-20T09:31:23;27.00;28.50
76838;DHT22;65797;47.352;8.164;2023-07-20T09:33:50;27.40;30.70
76838;DHT22;65797;47.352;8.164;2023-07-20T09:36:17;27.90;34.20
76838;DHT22;65797;47.352;8.164;2023-07-20T09:38:43;27.70;27.50
76838;DHT22;65797;47.352;8.164;2023-07-20T09:41:16;27.10;24.40
76838;DHT22;65797;47.352;8.164;2023-07-20T09:43:44;26.60;20.60
76838;DHT22;65797;47.352;8.164;2023-07-20T09:46:10;26.30;20.20
76838;DHT22;65797;47.352;8.164;2023-07-20T09:48:36;25.80;17.70
76838;DHT22;65797;47.352;8.164;2023-07-20T09:53:30;26.80;23.40
76838;DHT22;65797;47.352;8.164;2023-07-20T09:58:33;27.30;24.80
76838;DHT22;65797;47.352;8.164;2023-07-20T10:01:02;27.90;29.10
76838;DHT22;65797;47.352;8.164;2023-07-20T10:03:31;28.30;30.70
76838;DHT22;65797;47.352;8.164;2023-07-20T10:06:05;28.40;33.20
76838;DHT22;65797;47.352;8.164;2023-07-20T10:08:38;28.80;35.50
76838;DHT22;65797;47.352;8.164;2023-07-20T10:11:07;28.90;33.20
76838;DHT22;65797;47.352;8.164;2023-07-20T10:13:37;28.80;33.80
76838;DHT22;65797;47.352;8.164;2023-07-20T10:16:55;28.40;30.60
76838;DHT22;65797;47.352;8.164;2023-07-20T10:19:23;28.40;29.20
76838;DHT22;65797;47.352;8.164;2023-07-20T10:21:56;27.70;22.60
76838;DHT22;65797;47.352;8.164;2023-07-20T10:24:26;28.30;26.70
76838;DHT22;65797;47.352;8.164;2023-07-20T10:26:56;28.20;27.80
76838;DHT22;65797;47.352;8.164;2023-07-20T10:29:22;28.10;25.70
76838;DHT22;65797;47.352;8.164;2023-07-20T10:31:49;28.00;24.80
76838;DHT22;65797;47.352;8.164;2023-07-20T10:34:15;28.50;28.30
76838;DHT22;65797;47.352;8.164;2023-07-20T10:36:45;28.00;25.90
76838;DHT22;65797;47.352;8.164;2023-07-20T10:39:47;28.30;26.60
76838;DHT22;65797;47.352;8.164;2023-07-20T10:42:13;28.60;29.30
76838;DHT22;65797;47.352;8.164;2023-07-20T10:44:39;28.40;28.40
76838;DHT22;65797;47.352;8.164;2023-07-20T10:47:10;28.70;32.40
76838;DHT22;65797;47.352;8.164;2023-07-20T10:49:58;28.90;31.80
76838;DHT22;65797;47.352;8.164;2023-07-20T10:52:24;28.40;28.10
76838;DHT22;65797;47.352;8.164;2023-07-20T10:54:50;28.10;22.50
76838;DHT22;65797;47.352;8.164;2023-07-20T10:57:30;27.40;18.60
76838;DHT22;65797;47.352;8.164;2023-07-20T11:00:13;27.60;19.60
76838;DHT22;65797;47.352;8.164;2023-07-20T11:02:47;28.00;20.80
76838;DHT22;65797;47.352;8.164;2023-07-20T11:05:38;28.40;24.50
76838;DHT22;65797;47.352;8.164;2023-07-20T11:08:37;29.20;30.20
76838;DHT22;65797;47.352;8.164;2023-07-20T11:14:08;29.10;29.50
76838;DHT22;65797;47.352;8.164;2023-07-20T11:16:38;28.30;24.60
76838;DHT22;65797;47.352;8.164;2023-07-20T11:19:06;28.00;22.70
76838;DHT22;65797;47.352;8.164;2023-07-20T11:21:40;28.00;22.40
76838;DHT22;65797;47.352;8.164;2023-07-20T11:24:07;27.60;19.00
76838;DHT22;65797;47.352;8.164;2023-07-20T11:27:00;28.40;25.80
76838;DHT22;65797;47.352;8.164;2023-07-20T11:29:27;28.50;24.30
76838;DHT22;65797;47.352;8.164;2023-07-20T11:31:53;28.70;33.40
76838;DHT22;65797;47.352;8.164;2023-07-20T12:43:15;30.00;24.10
76838;DHT22;65797;47.352;8.164;2023-07-20T22:39:34;19.00;58.40
76838;DHT22;65797;47.352;8.164;2023-07-20T23:06:26;18.50;99.90
76838;DHT22;65797;47.352;8.164;2023-07-20T23:14:02;18.60;99.90
76838;DHT22;65797;47.352;8.164;2023-07-20T23:32:00;18.40;99.90
76838;DHT22;65797;47.352;8.164;2023-07-20T23:34:26;18.20;99.90
76838;DHT22;65797;47.352;8.164;2023-07-20T23:36:52;18.20;99.90
76838;DHT22;65797;47.352;8.164;2023-07-20T23:39:18;18.10;99.90
76838;DHT22;65797;47.352;8.164;2023-07-20T23:41:44;18.00;99.90
76838;DHT22;65797;47.352;8.164;2023-07-20T23:44:10;17.90;99.90
76838;DHT22;65797;47.352;8.164;2023-07-20T23:46:35;18.00;99.90
76838;DHT22;65797;47.352;8.164;2023-07-20T23:49:03;18.10;99.90
76838;DHT22;65797;47.352;8.164;2023-07-20T23:51:30;18.10;99.90
76838;DHT22;65797;47.352;8.164;2023-07-20T23:53:55;18.10;99.90
76838;DHT22;65797;47.352;8.164;2023-07-20T23:56:21;18.10;99.90
76838;DHT22;65797;47.352;8.164;2023-07-20T23:58:49;18.10;99.90
